createdAt,value
2018-10-03T00:00:05.444Z,8.70
2018-10-03T00:02:35.041Z,4.83
2018-10-03T00:05:04.667Z,7.57
2018-10-03T00:07:34.328Z,9.73
2018-10-03T00:10:04.009Z,7.97
2018-10-03T00:12:33.592Z,8.00
2018-10-03T00:15:03.199Z,6.67
2018-10-03T00:17:32.791Z,8.40
2018-10-03T00:20:02.657Z,7.13
2018-10-03T00:22:32.295Z,7.57
2018-10-03T00:25:01.893Z,6.53
2018-10-03T00:27:31.508Z,8.50
2018-10-03T00:30:01.112Z,8.73
2018-10-03T00:32:30.693Z,5.73
2018-10-03T00:35:00.291Z,7.63
2018-10-03T00:37:29.894Z,10.07
2018-10-03T00:39:59.589Z,6.33
2018-10-03T00:42:29.201Z,8.63
2018-10-03T00:44:58.844Z,6.73
2018-10-03T00:47:28.476Z,7.97
2018-10-03T00:49:58.080Z,4.47
2018-10-03T00:52:27.664Z,7.60
2018-10-03T00:54:57.280Z,10.10
2018-10-03T00:57:26.879Z,4.07
2018-10-03T00:59:56.458Z,5.97
2018-10-03T01:02:26.112Z,9.67
2018-10-03T01:04:55.712Z,9.37
2018-10-03T01:07:25.312Z,12.13
2018-10-03T01:09:54.951Z,8.47
2018-10-03T01:12:24.596Z,8.73
2018-10-03T01:14:54.199Z,12.37
2018-10-03T01:17:23.827Z,9.03
2018-10-03T01:19:53.455Z,9.60
2018-10-03T01:22:23.051Z,12.43
2018-10-03T01:24:52.671Z,15.80
2018-10-03T01:27:22.286Z,11.40
2018-10-03T01:29:51.927Z,12.13
2018-10-03T01:32:21.544Z,14.47
2018-10-03T01:34:51.154Z,17.40
2018-10-03T01:37:20.768Z,17.83
2018-10-03T01:39:50.361Z,14.70
2018-10-03T01:42:19.963Z,15.73
2018-10-03T01:44:49.630Z,19.40
2018-10-03T01:47:19.222Z,17.90
2018-10-03T01:49:48.836Z,18.37
2018-10-03T01:52:18.461Z,14.03
2018-10-03T01:54:48.056Z,17.93
2018-10-03T01:57:17.755Z,15.70
2018-10-03T01:59:47.356Z,14.07
2018-10-03T02:02:16.955Z,18.57
2018-10-03T02:04:46.591Z,13.80
2018-10-03T02:07:16.187Z,14.13
2018-10-03T02:09:45.787Z,15.13
2018-10-03T02:12:15.399Z,15.87
2018-10-03T02:14:45.079Z,13.80
2018-10-03T02:17:14.665Z,13.00
2018-10-03T02:19:44.259Z,16.57
2018-10-03T02:22:13.868Z,8.00
2018-10-03T02:24:43.452Z,12.13
2018-10-03T02:27:13.071Z,12.03
2018-10-03T02:29:42.679Z,10.93
2018-10-03T02:32:12.280Z,6.70
2018-10-03T02:34:41.912Z,7.37
2018-10-03T02:37:11.679Z,10.50
2018-10-03T02:39:41.316Z,16.70
2018-10-03T02:42:10.927Z,15.37
2018-10-03T02:44:40.532Z,16.30
2018-10-03T02:47:10.131Z,8.80
2018-10-03T02:49:39.988Z,10.00
2018-10-03T02:52:09.630Z,14.80
2018-10-03T02:54:39.244Z,16.80
2018-10-03T02:57:08.848Z,8.80
2018-10-03T02:59:38.458Z,10.27
2018-10-03T03:02:08.389Z,16.33
2018-10-03T03:04:38.008Z,17.00
2018-10-03T03:07:07.620Z,13.30
2018-10-03T03:09:37.260Z,7.20
2018-10-03T03:12:07.041Z,14.70
2018-10-03T03:14:36.783Z,9.73
2018-10-03T03:17:06.611Z,9.50
2018-10-03T03:19:36.272Z,11.37
2018-10-03T03:22:05.938Z,17.50
2018-10-03T03:24:35.559Z,10.03
2018-10-03T03:27:05.178Z,10.33
2018-10-03T03:29:34.841Z,10.47
2018-10-03T03:32:04.448Z,4.80
2018-10-03T03:34:34.092Z,3.80
2018-10-03T03:37:03.691Z,10.97
2018-10-03T03:39:33.297Z,4.77
2018-10-03T03:42:02.891Z,7.87
2018-10-03T03:44:32.506Z,6.30
2018-10-03T03:47:02.104Z,9.57
2018-10-03T03:49:31.727Z,3.93
2018-10-03T03:52:01.323Z,9.80
2018-10-03T03:54:30.944Z,9.17
2018-10-03T03:57:00.554Z,6.50
2018-10-03T03:59:30.235Z,5.63
2018-10-03T04:01:59.811Z,6.17
2018-10-03T04:04:29.483Z,9.90
2018-10-03T04:06:59.089Z,2.43
2018-10-03T04:09:28.696Z,7.60
2018-10-03T04:11:58.339Z,3.73
2018-10-03T04:14:27.926Z,7.40
2018-10-03T04:16:57.534Z,7.40
2018-10-03T04:19:27.862Z,1.73
2018-10-03T04:21:57.756Z,3.97
2018-10-03T04:24:27.426Z,4.47
2018-10-03T04:26:57.051Z,5.43
2018-10-03T04:29:26.657Z,4.17
2018-10-03T04:31:56.263Z,6.07
2018-10-03T04:34:25.871Z,7.23
2018-10-03T04:36:55.546Z,1.97
2018-10-03T04:39:25.157Z,6.50
2018-10-03T04:41:54.788Z,3.00
2018-10-03T04:44:24.408Z,1.80
2018-10-03T04:46:54.007Z,2.43
2018-10-03T04:49:23.620Z,1.17
2018-10-03T04:51:53.253Z,0.60
2018-10-03T04:54:22.864Z,2.20
2018-10-03T04:56:52.494Z,7.20
2018-10-03T04:59:22.116Z,2.30
2018-10-03T05:01:51.712Z,2.53
2018-10-03T05:04:21.331Z,3.20
2018-10-03T05:06:50.939Z,2.43
2018-10-03T05:09:20.528Z,3.13
2018-10-03T05:11:50.130Z,4.00
2018-10-03T05:14:19.737Z,2.37
2018-10-03T05:16:49.334Z,3.80
2018-10-03T05:19:18.975Z,1.60
2018-10-03T05:21:48.568Z,4.30
2018-10-03T05:24:18.159Z,5.43
2018-10-03T05:26:47.774Z,3.20
2018-10-03T05:29:17.354Z,0.80
2018-10-03T05:31:46.996Z,2.70
2018-10-03T05:34:16.660Z,4.47
2018-10-03T05:36:46.284Z,8.43
2018-10-03T05:39:15.881Z,4.27
2018-10-03T05:41:45.505Z,7.80
2018-10-03T05:44:15.096Z,2.97
2018-10-03T05:46:44.693Z,7.63
2018-10-03T05:49:14.332Z,3.07
2018-10-03T05:51:43.932Z,6.93
2018-10-03T05:54:13.591Z,7.80
2018-10-03T05:56:43.188Z,7.87
2018-10-03T05:59:12.776Z,3.30
2018-10-03T06:01:42.380Z,6.37
2018-10-03T06:04:11.972Z,5.63
2018-10-03T06:06:41.572Z,4.57
2018-10-03T06:09:12.535Z,4.63
2018-10-03T06:11:43.047Z,8.90
2018-10-03T06:14:12.988Z,9.00
2018-10-03T06:16:42.571Z,6.10
2018-10-03T06:19:12.185Z,6.53
2018-10-03T06:21:41.854Z,2.13
2018-10-03T06:24:11.520Z,6.90
2018-10-03T06:26:41.102Z,7.80
2018-10-03T06:29:10.751Z,5.90
2018-10-03T06:31:40.343Z,7.87
2018-10-03T06:34:09.936Z,9.27
2018-10-03T06:36:39.546Z,8.87
2018-10-03T06:39:10.183Z,7.17
2018-10-03T06:41:41.209Z,6.10
2018-10-03T06:44:11.439Z,7.57
2018-10-03T06:46:41.036Z,8.87
2018-10-03T06:49:10.644Z,6.00
2018-10-03T06:51:40.250Z,3.70
2018-10-03T06:54:09.849Z,7.30
2018-10-03T06:56:39.433Z,6.67
2018-10-03T06:59:09.073Z,5.03
2018-10-03T07:01:38.658Z,5.73
2018-10-03T07:04:08.318Z,7.67
2018-10-03T07:06:37.983Z,3.83
2018-10-03T07:09:08.487Z,4.00
2018-10-03T07:11:38.207Z,4.70
2018-10-03T07:14:07.880Z,2.10
2018-10-03T07:16:37.456Z,6.13
2018-10-03T07:19:07.232Z,4.30
2018-10-03T07:21:36.824Z,7.47
2018-10-03T07:24:06.435Z,6.33
2018-10-03T07:26:36.016Z,9.23
2018-10-03T07:29:05.651Z,3.97
2018-10-03T07:31:35.253Z,1.63
2018-10-03T07:34:04.840Z,6.00
2018-10-03T07:36:34.483Z,2.70
2018-10-03T07:39:05.080Z,8.23
2018-10-03T07:41:34.678Z,6.10
2018-10-03T07:44:04.397Z,4.80
2018-10-03T07:46:33.996Z,4.00
2018-10-03T07:49:03.602Z,1.00
2018-10-03T07:51:33.212Z,3.10
2018-10-03T07:54:02.816Z,4.20
2018-10-03T07:56:32.433Z,4.50
2018-10-03T07:59:02.105Z,2.53
2018-10-03T08:01:31.752Z,1.23
2018-10-03T08:04:01.331Z,2.57
2018-10-03T08:06:30.923Z,3.13
2018-10-03T08:09:00.527Z,1.37
2018-10-03T08:11:30.135Z,4.03
2018-10-03T08:13:59.702Z,3.40
2018-10-03T08:16:29.299Z,2.97
2018-10-03T08:18:58.903Z,1.90
2018-10-03T08:21:28.502Z,3.80
2018-10-03T08:23:58.138Z,4.47
2018-10-03T08:26:27.728Z,2.07
2018-10-03T08:28:57.316Z,1.93
2018-10-03T08:31:26.932Z,0.73
2018-10-03T08:33:56.556Z,1.50
2018-10-03T08:36:26.167Z,2.10
2018-10-03T08:38:55.776Z,1.30
2018-10-03T08:41:25.385Z,1.57
2018-10-03T08:43:54.980Z,1.33
2018-10-03T08:46:24.563Z,1.67
2018-10-03T08:48:54.189Z,2.13
2018-10-03T08:51:23.809Z,0.80
2018-10-03T08:53:53.416Z,6.40
2018-10-03T08:56:23.006Z,0.77
2018-10-03T08:58:52.604Z,2.13
2018-10-03T09:01:22.276Z,1.60
2018-10-03T09:03:51.916Z,1.20
2018-10-03T09:06:21.528Z,2.43
2018-10-03T09:08:51.148Z,0.97
2018-10-03T09:11:20.748Z,0.50
2018-10-03T09:13:50.350Z,0.83
2018-10-03T09:16:19.938Z,1.70
2018-10-03T09:18:49.513Z,0.80
2018-10-03T09:21:19.128Z,2.30
2018-10-03T09:23:48.744Z,1.03
2018-10-03T09:26:18.324Z,1.80
2018-10-03T09:28:47.947Z,1.37
2018-10-03T09:31:17.640Z,0.40
2018-10-03T09:33:47.255Z,4.30
2018-10-03T09:36:17.186Z,1.77
2018-10-03T09:38:46.897Z,1.37
2018-10-03T09:41:16.596Z,2.20
2018-10-03T09:43:46.338Z,0.80
2018-10-03T09:46:15.930Z,1.17
2018-10-03T09:48:45.552Z,1.17
2018-10-03T09:51:15.171Z,2.87
2018-10-03T09:53:44.747Z,1.27
2018-10-03T09:56:14.343Z,0.50
2018-10-03T09:58:43.948Z,1.70
2018-10-03T10:01:14.832Z,0.60
2018-10-03T10:03:44.447Z,0.80
2018-10-03T10:06:14.035Z,1.87
2018-10-03T10:08:43.647Z,2.30
2018-10-03T10:11:13.324Z,2.60
2018-10-03T10:13:43.107Z,1.77
2018-10-03T10:16:12.688Z,1.57
2018-10-03T10:18:42.282Z,1.23
2018-10-03T10:21:12.091Z,1.70
2018-10-03T10:23:41.691Z,1.27
2018-10-03T10:26:11.367Z,4.37
2018-10-03T10:28:41.047Z,2.37
2018-10-03T10:31:10.724Z,0.33
2018-10-03T10:33:40.332Z,0.60
2018-10-03T10:36:09.907Z,0.70
2018-10-03T10:38:39.510Z,1.47
2018-10-03T10:41:09.241Z,0.97
2018-10-03T10:43:38.760Z,0.73
2018-10-03T10:46:08.666Z,0.50
2018-10-03T10:48:38.279Z,1.27
2018-10-03T10:51:07.888Z,2.83
2018-10-03T10:53:37.464Z,2.93
2018-10-03T10:56:07.068Z,1.87
2018-10-03T10:58:36.664Z,0.97
2018-10-03T11:01:06.276Z,1.50
2018-10-03T11:03:35.860Z,1.60
2018-10-03T11:06:05.809Z,0.97
2018-10-03T11:08:35.384Z,1.33
2018-10-03T11:11:05.017Z,1.43
2018-10-03T11:13:34.638Z,1.30
2018-10-03T11:16:04.256Z,1.30
2018-10-03T11:18:33.884Z,0.57
2018-10-03T11:21:03.480Z,1.23
2018-10-03T11:23:33.141Z,1.97
2018-10-03T11:26:02.708Z,1.73
2018-10-03T11:28:32.295Z,7.77
2018-10-03T11:31:01.912Z,4.37
2018-10-03T11:33:31.528Z,3.30
2018-10-03T11:36:01.145Z,3.13
2018-10-03T11:38:30.726Z,4.10
2018-10-03T11:41:00.347Z,4.03
2018-10-03T11:43:30.023Z,2.40
2018-10-03T11:45:59.611Z,23.97
2018-10-03T11:48:29.222Z,2.73
2018-10-03T11:50:58.817Z,1.67
2018-10-03T11:53:28.420Z,1.13
2018-10-03T11:55:58.022Z,1.57
2018-10-03T11:58:27.640Z,0.80
2018-10-03T12:00:57.260Z,1.00
2018-10-03T12:03:26.989Z,1.27
2018-10-03T12:05:56.565Z,1.00
2018-10-03T12:08:26.183Z,1.40
2018-10-03T12:10:55.782Z,1.67
2018-10-03T12:13:25.390Z,1.00
2018-10-03T12:15:54.988Z,2.23
2018-10-03T12:18:24.635Z,0.90
2018-10-03T12:20:54.239Z,1.97
2018-10-03T12:23:23.840Z,1.83
2018-10-03T12:25:53.444Z,0.53
2018-10-03T12:28:23.208Z,0.60
2018-10-03T12:30:52.787Z,0.93
2018-10-03T12:33:22.407Z,1.47
2018-10-03T12:35:52.003Z,0.53
2018-10-03T12:38:21.596Z,0.90
2018-10-03T12:40:51.211Z,1.27
2018-10-03T12:43:20.846Z,0.97
2018-10-03T12:45:50.443Z,1.43
2018-10-03T12:48:20.115Z,2.33
2018-10-03T12:50:49.775Z,2.87
2018-10-03T12:53:19.376Z,8.33
2018-10-03T12:55:48.959Z,1.80
2018-10-03T12:58:18.574Z,1.80
2018-10-03T13:00:48.192Z,3.50
2018-10-03T13:03:17.818Z,2.90
2018-10-03T13:05:47.403Z,1.73
2018-10-03T13:08:17.063Z,0.70
2018-10-03T13:10:46.718Z,4.37
2018-10-03T13:13:16.337Z,3.67
2018-10-03T13:15:46.184Z,3.50
2018-10-03T13:18:15.816Z,2.07
2018-10-03T13:20:45.408Z,2.20
2018-10-03T13:23:15.027Z,2.47
2018-10-03T13:25:44.646Z,2.30
2018-10-03T13:28:14.284Z,1.43
2018-10-03T13:33:09.165Z,1.53
2018-10-03T13:35:38.785Z,1.93
2018-10-03T13:38:08.417Z,4.83
2018-10-03T13:40:38.020Z,3.67
2018-10-03T13:43:07.647Z,1.77
2018-10-03T13:45:37.244Z,0.70
2018-10-03T13:48:06.871Z,2.13
2018-10-03T13:50:36.467Z,3.10
2018-10-03T13:53:06.072Z,3.67
2018-10-03T13:55:35.660Z,1.93
2018-10-03T13:58:05.288Z,3.67
2018-10-03T14:00:34.928Z,4.40
2018-10-03T14:03:04.558Z,5.63
2018-10-03T14:05:34.146Z,3.07
2018-10-03T14:08:03.731Z,8.03
2018-10-03T14:10:33.487Z,4.03
2018-10-03T14:13:03.109Z,3.43
2018-10-03T14:15:33.001Z,8.37
2018-10-03T14:18:02.652Z,2.77
2018-10-03T14:20:32.275Z,4.50
2018-10-03T14:23:01.869Z,4.77
2018-10-03T14:25:31.481Z,7.77
2018-10-03T14:28:01.084Z,1.57
2018-10-03T14:30:30.667Z,2.87
2018-10-03T14:33:00.305Z,6.67
2018-10-03T14:35:29.949Z,4.07
2018-10-03T14:37:59.564Z,10.20
2018-10-03T14:40:29.184Z,19.60
2018-10-03T14:42:58.807Z,6.33
2018-10-03T14:45:28.396Z,9.30
2018-10-03T14:47:57.986Z,8.43
2018-10-03T14:50:27.608Z,3.47
2018-10-03T14:52:57.203Z,8.33
2018-10-03T14:55:26.793Z,5.87
2018-10-03T14:57:56.551Z,14.43
2018-10-03T15:00:26.195Z,4.67
2018-10-03T15:02:55.799Z,153.07
2018-10-03T15:05:25.507Z,6.53
2018-10-03T15:07:55.147Z,8.03
2018-10-03T15:10:24.816Z,8.77
2018-10-03T15:12:54.474Z,52.00
2018-10-03T15:15:24.083Z,6.90
2018-10-03T15:17:53.708Z,19.87
2018-10-03T15:20:23.360Z,8.40
2018-10-03T15:22:52.988Z,24.37
2018-10-03T15:25:22.689Z,10.73
2018-10-03T15:27:52.403Z,12.33
2018-10-03T15:30:21.991Z,6.83
2018-10-03T15:32:51.608Z,12.27
2018-10-03T15:35:21.238Z,10.20
2018-10-03T15:37:50.920Z,8.30
2018-10-03T15:40:20.527Z,8.40
2018-10-03T15:42:50.156Z,10.53
2018-10-03T15:45:19.823Z,7.27
2018-10-03T15:47:49.411Z,21.83
2018-10-03T15:50:19.012Z,12.03
2018-10-03T15:52:48.625Z,10.30
2018-10-03T15:55:18.251Z,28.33
2018-10-03T15:57:47.865Z,17.80
2018-10-03T16:00:17.520Z,16.23
2018-10-03T16:02:47.148Z,11.30
2018-10-03T16:05:16.780Z,31.27
2018-10-03T16:07:46.386Z,9.60
2018-10-03T16:10:15.998Z,10.27
2018-10-03T16:12:45.615Z,3.80
2018-10-03T16:15:15.210Z,6.83
2018-10-03T16:17:44.787Z,7.50
2018-10-03T16:20:14.434Z,7.70
2018-10-03T16:22:44.028Z,4.30
2018-10-03T16:25:14.327Z,7.40
2018-10-03T16:27:43.955Z,11.30
2018-10-03T16:30:13.574Z,6.30
2018-10-03T16:32:43.234Z,15.67
2018-10-03T16:35:13.604Z,9.30
2018-10-03T16:37:43.208Z,11.40
2018-10-03T16:40:12.818Z,6.13
2018-10-03T16:42:42.415Z,13.80
2018-10-03T16:45:11.985Z,14.53
2018-10-03T16:47:41.599Z,7.63
2018-10-03T16:50:11.201Z,5.63
2018-10-03T16:52:40.794Z,12.37
2018-10-03T16:55:10.416Z,14.77
2018-10-03T16:57:40.030Z,22.97
2018-10-03T17:00:09.691Z,10.93
2018-10-03T17:02:39.315Z,16.10
2018-10-03T17:05:08.932Z,11.63
2018-10-03T17:07:38.524Z,9.57
2018-10-03T17:10:08.205Z,21.13
2018-10-03T17:12:37.800Z,8.80
2018-10-03T17:15:07.478Z,9.23
2018-10-03T17:17:37.161Z,10.13
2018-10-03T17:20:06.795Z,20.57
2018-10-03T17:22:36.412Z,9.43
2018-10-03T17:25:06.089Z,36.13
2018-10-03T17:27:35.744Z,48.23
2018-10-03T17:30:05.425Z,163.03
2018-10-03T17:32:35.043Z,143.93
2018-10-03T17:35:04.682Z,220.10
2018-10-03T17:37:34.363Z,563.97
2018-10-03T17:40:04.004Z,253.90
2018-10-03T17:42:33.611Z,180.87
2018-10-03T17:45:03.258Z,67.33
2018-10-03T17:47:33.202Z,79.40
2018-10-03T17:50:02.806Z,139.00
2018-10-03T17:52:33.223Z,107.33
2018-10-03T17:55:02.840Z,97.90
2018-10-03T17:57:32.476Z,73.80
2018-10-03T18:00:02.085Z,17.77
2018-10-03T18:02:31.736Z,25.60
2018-10-03T18:05:01.373Z,27.03
2018-10-03T18:07:30.981Z,43.53
2018-10-03T18:10:00.575Z,31.93
2018-10-03T18:12:30.241Z,56.03
2018-10-03T18:14:59.853Z,35.77
2018-10-03T18:17:29.448Z,15.70
2018-10-03T18:19:59.103Z,19.23
2018-10-03T18:22:29.182Z,33.37
2018-10-03T18:25:00.402Z,16.23
2018-10-03T18:27:30.731Z,28.17
2018-10-03T18:30:01.019Z,54.97
2018-10-03T18:32:31.108Z,28.30
2018-10-03T18:35:01.086Z,16.33
2018-10-03T18:37:31.088Z,31.40
2018-10-03T18:40:01.349Z,26.13
2018-10-03T18:42:32.215Z,28.97
2018-10-03T18:45:04.361Z,49.83
2018-10-03T18:47:34.470Z,49.93
2018-10-03T18:50:04.575Z,21.03
2018-10-03T18:52:34.389Z,19.43
2018-10-03T18:55:04.032Z,51.37
2018-10-03T18:57:33.898Z,30.40
2018-10-03T19:00:03.532Z,105.10
2018-10-03T19:02:33.264Z,48.57
2018-10-03T19:05:02.877Z,125.63
2018-10-03T19:07:32.484Z,63.73
2018-10-03T19:10:02.086Z,182.33
2018-10-03T19:12:31.740Z,103.30
2018-10-03T19:15:01.316Z,44.03
2018-10-03T19:17:30.926Z,94.27
2018-10-03T19:20:00.590Z,42.47
2018-10-03T19:22:30.226Z,52.20
2018-10-03T19:24:59.840Z,68.07
2018-10-03T19:27:29.456Z,66.00
2018-10-03T19:29:59.215Z,95.93
2018-10-03T19:32:28.836Z,89.03
2018-10-03T19:34:58.443Z,55.17
2018-10-03T19:37:28.100Z,21.93
2018-10-03T19:39:57.857Z,20.03
2018-10-03T19:42:27.464Z,34.43
2018-10-03T19:44:57.167Z,42.87
2018-10-03T19:47:26.801Z,86.13
2018-10-03T19:49:56.416Z,20.33
2018-10-03T19:52:26.073Z,15.77
2018-10-03T19:54:55.697Z,12.77
2018-10-03T19:57:25.313Z,9.60
2018-10-03T19:59:54.893Z,17.13
2018-10-03T20:02:24.516Z,72.73
2018-10-03T20:04:54.119Z,15.93
2018-10-03T20:07:23.722Z,21.30
2018-10-03T20:09:53.320Z,19.37
2018-10-03T20:12:22.938Z,34.27
2018-10-03T20:14:52.552Z,33.17
2018-10-03T20:17:22.165Z,25.73
2018-10-03T20:19:51.964Z,36.63
2018-10-03T20:22:21.568Z,26.17
2018-10-03T20:24:51.175Z,24.03
2018-10-03T20:27:20.831Z,37.20
2018-10-03T20:29:50.452Z,16.80
2018-10-03T20:32:20.077Z,25.50
2018-10-03T20:34:49.681Z,20.43
2018-10-03T20:37:19.287Z,27.20
2018-10-03T20:39:48.891Z,58.57
2018-10-03T20:42:18.496Z,68.13
2018-10-03T20:44:48.083Z,18.47
2018-10-03T20:47:17.679Z,10.87
2018-10-03T20:49:47.307Z,11.77
2018-10-03T20:52:16.960Z,9.47
2018-10-03T20:54:46.552Z,9.80
2018-10-03T20:57:16.151Z,7.63
2018-10-03T20:59:45.745Z,14.87
2018-10-03T21:02:15.381Z,14.33
2018-10-03T21:04:44.972Z,9.63
2018-10-03T21:07:14.569Z,12.30
2018-10-03T21:09:44.162Z,8.00
2018-10-03T21:12:13.760Z,6.40
2018-10-03T21:14:43.356Z,10.17
2018-10-03T21:17:12.940Z,7.87
2018-10-03T21:19:42.545Z,7.03
2018-10-03T21:22:12.139Z,12.93
2018-10-03T21:24:41.722Z,11.70
2018-10-03T21:27:11.348Z,8.90
2018-10-03T21:29:40.940Z,6.20
2018-10-03T21:32:10.556Z,6.07
2018-10-03T21:34:40.152Z,4.93
2018-10-03T21:37:09.758Z,4.50
2018-10-03T21:39:39.334Z,3.93
2018-10-03T21:42:08.931Z,5.30
2018-10-03T21:44:38.539Z,8.97
2018-10-03T21:47:08.144Z,4.53
2018-10-03T21:49:37.764Z,4.53
2018-10-03T21:52:07.492Z,3.80
2018-10-03T21:54:37.088Z,4.27
2018-10-03T21:57:06.711Z,6.23
2018-10-03T21:59:36.390Z,5.60
2018-10-03T22:02:05.971Z,3.90
2018-10-03T22:04:35.603Z,3.80
2018-10-03T22:07:05.218Z,2.13
2018-10-03T22:09:34.824Z,4.13
2018-10-03T22:12:04.422Z,2.17
2018-10-03T22:14:34.021Z,3.70
2018-10-03T22:17:03.674Z,4.30
2018-10-03T22:19:33.249Z,3.23
2018-10-03T22:22:02.841Z,3.10
2018-10-03T22:24:32.421Z,3.47
2018-10-03T22:27:02.023Z,3.50
2018-10-03T22:29:31.627Z,6.73
2018-10-03T22:32:01.263Z,3.60
2018-10-03T22:34:30.845Z,4.13
2018-10-03T22:37:00.433Z,8.77
2018-10-03T22:39:30.023Z,3.20
2018-10-03T22:41:59.601Z,2.63
2018-10-03T22:44:29.198Z,7.27
2018-10-03T22:46:58.826Z,6.67
2018-10-03T22:49:28.438Z,7.00
2018-10-03T22:51:58.080Z,7.97
2018-10-03T22:54:27.703Z,7.93
2018-10-03T22:56:57.363Z,6.70
2018-10-03T22:59:27.055Z,7.40
2018-10-03T23:01:56.811Z,5.27
2018-10-03T23:04:26.480Z,4.57
2018-10-03T23:06:56.098Z,3.73
2018-10-03T23:09:25.718Z,5.27
2018-10-03T23:11:55.357Z,3.57
2018-10-03T23:14:24.919Z,6.30
2018-10-03T23:16:54.567Z,4.97
2018-10-03T23:19:24.166Z,4.13
2018-10-03T23:21:53.754Z,7.23
2018-10-03T23:24:23.342Z,5.13
2018-10-03T23:26:52.903Z,5.27
2018-10-03T23:29:22.498Z,6.13
2018-10-03T23:31:52.090Z,3.73
2018-10-03T23:34:21.681Z,5.03
2018-10-03T23:36:51.310Z,6.90
2018-10-03T23:39:20.966Z,6.70
2018-10-03T23:41:50.606Z,9.83
2018-10-03T23:44:20.196Z,6.70
2018-10-03T23:46:49.777Z,10.73
2018-10-03T23:49:19.394Z,8.10
2018-10-03T23:51:48.992Z,9.37
2018-10-03T23:54:18.570Z,7.67
2018-10-03T23:56:48.193Z,9.87
2018-10-03T23:59:17.765Z,6.97
